Time;durP1;ratioP1;P1;durP2;ratioP2;P2;SDS_P1;SDS_P2;PMS_P1;PMS_P2;Temp;Humidity;BMP_temperature;BMP_pressure;BME280_temperature;BME280_humidity;BME280_pressure;Samples;Min_cycle;Max_cycle;Signal;HPM_P1;HPM_P2
2021/01/07 00:00:48;;;;;;;9.90;5.20;;;2.00;92.90;;;;;;5088887;28;20114;-65
2021/01/07 00:03:14;;;;;;;11.50;5.77;;;2.00;93.00;;;;;;5089850;28;20431;-65
2021/01/07 00:05:40;;;;;;;10.47;5.40;;;2.00;93.00;;;;;;5090051;28;20028;-65
2021/01/07 00:08:06;;;;;;;10.90;5.73;;;2.00;93.00;;;;;;5090093;28;20047;-65
2021/01/07 00:10:32;;;;;;;10.60;5.37;;;2.00;93.00;;;;;;5090350;28;20464;-65
2021/01/07 00:12:57;;;;;;;11.73;5.73;;;2.10;93.10;;;;;;5090189;28;20535;-65
2021/01/07 00:15:23;;;;;;;10.80;5.60;;;2.00;93.10;;;;;;5091075;28;20040;-65
2021/01/07 00:17:49;;;;;;;9.17;5.23;;;2.10;93.10;;;;;;5094172;28;20036;-65
2021/01/07 00:20:15;;;;;;;10.17;5.60;;;2.10;93.00;;;;;;5059139;28;20381;-65
2021/01/07 00:22:41;;;;;;;10.13;5.53;;;2.10;92.90;;;;;;5093820;28;20118;-65
2021/01/07 00:25:09;;;;;;;10.33;5.60;;;2.00;92.90;;;;;;5093854;28;20052;-65
2021/01/07 00:27:35;;;;;;;10.70;5.70;;;2.00;93.00;;;;;;5093564;28;20098;-66
2021/01/07 00:30:02;;;;;;;9.57;5.20;;;2.00;93.00;;;;;;5076051;28;20086;-65
2021/01/07 00:32:28;;;;;;;10.27;5.30;;;2.00;93.10;;;;;;5074711;28;20487;-66
2021/01/07 00:34:54;;;;;;;10.53;5.90;;;2.10;93.10;;;;;;5093634;28;20044;-65
2021/01/07 00:37:19;;;;;;;12.23;5.13;;;2.10;93.10;;;;;;5075881;28;20518;-65
2021/01/07 00:39:45;;;;;;;10.60;5.50;;;2.00;93.10;;;;;;5093275;28;20040;-65
2021/01/07 00:42:11;;;;;;;9.70;5.20;;;2.10;93.10;;;;;;5093068;28;20036;-65
2021/01/07 00:44:36;;;;;;;9.87;5.20;;;2.10;93.10;;;;;;5092970;28;20676;-67
2021/01/07 00:47:02;;;;;;;9.80;4.93;;;2.10;93.00;;;;;;5093737;28;20032;-66
2021/01/07 00:49:28;;;;;;;8.87;4.67;;;2.10;93.00;;;;;;5093713;28;20036;-66
2021/01/07 00:51:54;;;;;;;9.43;5.13;;;2.10;92.80;;;;;;5074402;28;20378;-64
2021/01/07 00:54:22;;;;;;;9.70;5.00;;;2.00;92.90;;;;;;5093220;28;20035;-65
2021/01/07 00:56:49;;;;;;;8.80;4.93;;;2.00;93.00;;;;;;5074803;28;20036;-65
2021/01/07 00:59:22;;;;;;;10.23;5.60;;;2.00;93.00;;;;;;5075351;28;20085;-65
2021/01/07 01:01:49;;;;;;;10.13;5.43;;;2.00;93.00;;;;;;5093049;28;20036;-65
2021/01/07 01:04:15;;;;;;;10.67;5.50;;;2.00;93.00;;;;;;5092547;28;20029;-65
2021/01/07 01:06:45;;;;;;;10.97;5.90;;;2.00;93.00;;;;;;5093155;28;20036;-65
2021/01/07 01:09:16;;;;;;;10.65;4.90;;;2.00;93.10;;;;;;5092777;28;20047;-65
2021/01/07 01:11:46;;;;;;;9.43;5.10;;;2.00;93.00;;;;;;5075256;28;20507;-65
2021/01/07 01:14:13;;;;;;;10.18;5.30;;;2.00;93.00;;;;;;5074906;28;20151;-65
2021/01/07 01:16:39;;;;;;;9.43;5.00;;;2.00;93.10;;;;;;5073560;28;20032;-64
2021/01/07 01:19:06;;;;;;;11.40;5.77;;;2.10;93.10;;;;;;5094794;28;20511;-66
2021/01/07 01:21:32;;;;;;;9.60;4.87;;;2.10;93.10;;;;;;5092010;28;20032;-66
2021/01/07 01:23:59;;;;;;;10.07;4.97;;;2.00;93.10;;;;;;5058007;28;20036;-66
2021/01/07 01:26:25;;;;;;;9.87;4.90;;;2.00;93.00;;;;;;5091734;28;20040;-66
2021/01/07 01:28:51;;;;;;;9.63;5.23;;;2.10;93.10;;;;;;5092525;28;20039;-66
2021/01/07 01:31:17;;;;;;;9.90;5.40;;;2.00;93.00;;;;;;5092932;28;20035;-65
2021/01/07 01:33:42;;;;;;;10.17;5.10;;;2.00;93.00;;;;;;5074010;28;20512;-65
2021/01/07 01:36:08;;;;;;;9.93;5.03;;;2.00;93.00;;;;;;5092262;28;20381;-64
2021/01/07 01:38:34;;;;;;;9.10;4.93;;;2.00;93.00;;;;;;5092234;28;20451;-67
2021/01/07 01:41:09;;;;;;;9.53;4.93;;;2.00;93.30;;;;;;5074542;28;20036;-65
2021/01/07 01:43:35;;;;;;;9.47;4.90;;;2.00;93.10;;;;;;5092371;28;20118;-65
2021/01/07 01:46:01;;;;;;;8.87;4.80;;;2.10;93.10;;;;;;5092304;28;20571;-65
2021/01/07 01:48:27;;;;;;;9.77;5.23;;;2.00;93.10;;;;;;5074375;28;20036;-65
2021/01/07 01:50:54;;;;;;;9.90;5.17;;;2.10;93.10;;;;;;5092053;28;20048;-65
2021/01/07 01:53:22;;;;;;;10.07;5.17;;;2.00;92.90;;;;;;5092019;28;20028;-65
2021/01/07 01:55:49;;;;;;;9.97;5.23;;;2.00;93.00;;;;;;5091626;28;20488;-65
2021/01/07 01:58:15;;;;;;;9.60;4.70;;;2.00;92.90;;;;;;5092127;28;20089;-65
2021/01/07 02:00:41;;;;;;;10.17;5.40;;;2.00;93.00;;;;;;5074205;28;20442;-65
2021/01/07 02:03:11;;;;;;;9.53;5.13;;;2.00;93.10;;;;;;5091331;28;20040;-65
2021/01/07 02:05:38;;;;;;;10.25;4.90;;;2.00;93.00;;;;;;5092103;28;20503;-65
2021/01/07 02:08:05;;;;;;;9.80;4.83;;;2.00;93.10;;;;;;5091562;28;20036;-66
2021/01/07 02:10:32;;;;;;;9.77;5.20;;;2.00;93.10;;;;;;5092294;28;20047;-65
2021/01/07 02:12:59;;;;;;;9.23;5.10;;;2.00;93.10;;;;;;5091666;28;20423;-65
2021/01/07 02:15:25;;;;;;;9.57;5.07;;;2.00;93.10;;;;;;5072841;28;20410;-66
2021/01/07 02:17:51;;;;;;;9.63;4.77;;;2.00;93.00;;;;;;5091745;28;20085;-65
2021/01/07 02:20:24;;;;;;;11.00;5.30;;;1.90;93.00;;;;;;5091503;28;20040;-66
2021/01/07 02:22:55;;;;;;;10.57;5.47;;;1.90;93.10;;;;;;5091489;28;20036;-66
2021/01/07 02:25:21;;;;;;;10.07;5.43;;;1.90;93.10;;;;;;5091222;28;20779;-64
2021/01/07 02:27:48;;;;;;;9.77;5.43;;;2.00;93.10;;;;;;5073611;28;20408;-65
2021/01/07 02:30:14;;;;;;;12.70;6.03;;;2.00;93.10;;;;;;5073726;28;20079;-65
2021/01/07 02:32:40;;;;;;;10.90;5.40;;;2.00;93.10;;;;;;5090839;28;20036;-65
2021/01/07 02:35:08;;;;;;;10.03;5.33;;;2.00;93.10;;;;;;5073192;28;20126;-66
2021/01/07 02:37:35;;;;;;;10.03;5.40;;;2.00;93.30;;;;;;5072101;28;20044;-66
2021/01/07 02:40:01;;;;;;;9.90;5.13;;;2.00;93.10;;;;;;5091613;28;20044;-66
2021/01/07 02:42:26;;;;;;;10.43;5.60;;;2.00;93.10;;;;;;5091190;28;20094;-66
2021/01/07 02:44:52;;;;;;;10.03;5.10;;;2.00;93.10;;;;;;5090728;28;20036;-65
2021/01/07 02:47:18;;;;;;;11.03;5.70;;;2.00;93.10;;;;;;5091517;28;20047;-65
2021/01/07 02:49:45;;;;;;;10.73;5.43;;;2.00;93.10;;;;;;5090970;28;20044;-66
2021/01/07 02:52:10;;;;;;;9.73;4.97;;;2.00;93.00;;;;;;5072920;28;20044;-65
2021/01/07 02:54:36;;;;;;;11.47;5.93;;;2.00;93.10;;;;;;5091058;28;20032;-65
2021/01/07 02:57:02;;;;;;;10.37;5.37;;;2.00;93.10;;;;;;5056230;28;20040;-65
2021/01/07 02:59:29;;;;;;;9.63;4.83;;;2.00;93.10;;;;;;5091320;28;20036;-65
2021/01/07 03:01:55;;;;;;;11.10;5.77;;;2.00;93.10;;;;;;5088729;28;20043;-66
2021/01/07 03:04:21;;;;;;;10.27;5.03;;;2.00;93.10;;;;;;5072973;28;20089;-65
2021/01/07 03:06:47;;;;;;;10.37;5.30;;;1.90;93.10;;;;;;5091205;28;20036;-64
2021/01/07 03:09:14;;;;;;;9.20;4.70;;;2.00;93.40;;;;;;5072719;28;20024;-66
2021/01/07 03:11:39;;;;;;;10.13;4.77;;;2.00;93.20;;;;;;5090889;28;20028;-66
2021/01/07 03:14:05;;;;;;;9.60;4.80;;;2.00;93.20;;;;;;5072586;28;20096;-64
2021/01/07 03:16:31;;;;;;;10.10;5.20;;;2.00;93.20;;;;;;5090588;28;20036;-66
2021/01/07 03:18:57;;;;;;;9.77;4.97;;;2.00;93.10;;;;;;5056189;28;20480;-66
2021/01/07 03:21:23;;;;;;;10.77;5.50;;;2.00;93.00;;;;;;5090744;28;20035;-65
2021/01/07 03:23:49;;;;;;;10.03;5.10;;;2.00;93.00;;;;;;5090735;28;20403;-66
2021/01/07 03:26:15;;;;;;;9.53;4.83;;;2.00;93.10;;;;;;5090489;28;20662;-66
2021/01/07 03:28:41;;;;;;;9.70;4.93;;;2.00;93.10;;;;;;5090820;28;20032;-66
2021/01/07 03:31:08;;;;;;;9.63;4.80;;;2.00;93.20;;;;;;5056079;28;20043;-64
2021/01/07 03:33:33;;;;;;;10.13;4.97;;;2.00;93.10;;;;;;5072289;28;20040;-65
2021/01/07 03:36:00;;;;;;;8.93;4.50;;;2.00;93.00;;;;;;5072647;28;20036;-66
2021/01/07 03:38:26;;;;;;;9.37;4.47;;;1.90;93.10;;;;;;5072369;28;20560;-65
2021/01/07 03:40:52;;;;;;;8.90;4.50;;;1.90;93.10;;;;;;5072728;28;20040;-66
2021/01/07 03:43:18;;;;;;;8.63;4.40;;;1.90;93.20;;;;;;5090335;28;20044;-66
2021/01/07 03:45:43;;;;;;;8.90;4.53;;;1.90;93.20;;;;;;5090078;28;20035;-66
2021/01/07 03:48:09;;;;;;;8.93;4.30;;;2.00;93.20;;;;;;5090843;28;20051;-65
2021/01/07 03:50:35;;;;;;;9.03;4.33;;;1.90;93.20;;;;;;5094353;28;20047;-65
2021/01/07 03:53:02;;;;;;;9.03;4.13;;;2.00;93.20;;;;;;5076013;28;20032;-65
2021/01/07 03:55:27;;;;;;;9.13;4.37;;;2.00;93.20;;;;;;5076473;28;20044;-65
2021/01/07 03:57:54;;;;;;;8.60;4.10;;;2.00;93.20;;;;;;5094111;28;20051;-65
2021/01/07 04:00:20;;;;;;;8.67;4.47;;;2.00;93.30;;;;;;5076889;28;20090;-65
2021/01/07 04:02:45;;;;;;;8.33;4.23;;;2.00;93.10;;;;;;5074372;28;20066;-65
2021/01/07 04:05:11;;;;;;;8.67;4.27;;;2.00;93.10;;;;;;5075887;28;20117;-65
2021/01/07 04:07:38;;;;;;;8.10;3.90;;;2.00;93.10;;;;;;5094805;28;20089;-65
2021/01/07 04:10:08;;;;;;;8.83;4.20;;;2.00;93.20;;;;;;5094149;28;20040;-65
2021/01/07 04:12:34;;;;;;;8.50;4.00;;;1.90;93.10;;;;;;5094153;28;20059;-65
2021/01/07 04:15:01;;;;;;;8.37;4.23;;;1.90;93.40;;;;;;5093583;28;20044;-65
2021/01/07 04:17:26;;;;;;;8.83;4.03;;;1.90;93.20;;;;;;5094468;28;20036;-65
2021/01/07 04:19:52;;;;;;;8.80;4.23;;;2.00;93.30;;;;;;5094333;28;20547;-65
2021/01/07 04:22:18;;;;;;;9.00;4.03;;;2.00;93.20;;;;;;5093555;28;20036;-66
2021/01/07 04:24:43;;;;;;;9.03;4.43;;;2.00;93.20;;;;;;5093967;28;20077;-65
2021/01/07 04:27:09;;;;;;;9.07;4.33;;;1.90;93.00;;;;;;5093773;28;20036;-65
2021/01/07 04:29:35;;;;;;;8.97;4.43;;;1.90;93.10;;;;;;5094108;28;20034;-66
2021/01/07 04:32:00;;;;;;;9.27;4.70;;;1.90;93.10;;;;;;5075716;28;20032;-65
2021/01/07 04:34:26;;;;;;;9.83;4.80;;;1.90;93.20;;;;;;5075408;28;20552;-66
2021/01/07 04:36:52;;;;;;;9.60;4.73;;;1.90;93.10;;;;;;5094084;28;20044;-65
2021/01/07 04:39:17;;;;;;;9.53;4.87;;;1.80;93.20;;;;;;5093372;28;20040;-64
2021/01/07 04:41:43;;;;;;;9.10;4.43;;;1.80;93.20;;;;;;5093694;28;21542;-66
2021/01/07 04:44:10;;;;;;;8.60;4.27;;;1.80;93.30;;;;;;5075729;28;20047;-66
2021/01/07 04:46:36;;;;;;;8.83;4.07;;;1.90;93.30;;;;;;5075154;28;20032;-66
2021/01/07 04:49:02;;;;;;;9.93;4.60;;;1.90;93.30;;;;;;5093747;28;20033;-65
2021/01/07 04:51:28;;;;;;;9.60;4.87;;;1.90;93.30;;;;;;5075568;28;20032;-66
2021/01/07 04:53:54;;;;;;;9.10;4.30;;;1.90;93.30;;;;;;5093049;28;20060;-66
2021/01/07 04:56:19;;;;;;;9.53;4.50;;;1.90;93.20;;;;;;5058805;28;20450;-65
2021/01/07 04:58:45;;;;;;;8.80;4.23;;;1.90;93.20;;;;;;5075158;28;20034;-65
2021/01/07 05:01:11;;;;;;;8.87;3.87;;;1.90;93.20;;;;;;5092748;28;20032;-65
2021/01/07 05:03:37;;;;;;;9.40;4.30;;;1.90;93.50;;;;;;5093073;28;20485;-65
2021/01/07 05:06:03;;;;;;;9.10;4.40;;;1.80;93.30;;;;;;5058059;28;20038;-66
2021/01/07 05:08:29;;;;;;;8.97;4.20;;;1.90;93.30;;;;;;5075418;28;20089;-66
2021/01/07 05:10:56;;;;;;;9.20;4.30;;;1.90;93.30;;;;;;5093073;28;20115;-65
2021/01/07 05:13:23;;;;;;;8.23;4.00;;;1.90;93.30;;;;;;5057997;28;20024;-65
2021/01/07 05:15:49;;;;;;;8.77;4.20;;;1.90;93.30;;;;;;5093036;28;20423;-65
2021/01/07 05:18:15;;;;;;;9.30;4.40;;;1.90;93.30;;;;;;5092736;28;20060;-64
2021/01/07 05:20:41;;;;;;;8.90;4.20;;;1.90;93.30;;;;;;5075118;28;20034;-64
2021/01/07 05:23:08;;;;;;;8.63;4.10;;;1.90;93.30;;;;;;5092352;28;20055;-76
2021/01/07 05:25:36;;;;;;;8.67;4.13;;;1.90;93.40;;;;;;5092784;28;20463;-76
2021/01/07 05:28:04;;;;;;;9.00;4.20;;;1.80;93.20;;;;;;5092320;28;20732;-74
2021/01/07 05:30:32;;;;;;;8.27;3.87;;;1.90;93.30;;;;;;5092364;28;20040;-75
2021/01/07 05:33:04;;;;;;;9.67;4.20;;;1.80;93.30;;;;;;5092253;28;20040;-75
2021/01/07 05:35:30;;;;;;;8.83;4.03;;;1.90;93.30;;;;;;5091683;28;20115;-76
2021/01/07 05:38:01;;;;;;;8.83;4.20;;;1.80;93.30;;;;;;5092604;28;20467;-76
2021/01/07 05:40:27;;;;;;;8.63;3.80;;;1.90;93.40;;;;;;5090854;28;20044;-76
2021/01/07 05:43:01;;;;;;;9.67;4.23;;;1.90;93.40;;;;;;5091641;28;20044;-75
2021/01/07 05:45:38;;;;;;;8.20;3.70;;;1.90;93.30;;;;;;5086165;28;20044;-76
2021/01/07 05:48:04;;;;;;;8.63;3.97;;;1.90;93.30;;;;;;5091828;28;20085;-74
2021/01/07 05:50:38;;;;;;;8.70;4.20;;;1.90;93.40;;;;;;5073546;28;20035;-74
2021/01/07 05:53:04;;;;;;;8.57;3.77;;;1.90;93.30;;;;;;5083839;28;20028;-75
2021/01/07 05:55:31;;;;;;;8.40;3.83;;;1.80;93.20;;;;;;5056703;28;20064;-75
2021/01/07 05:58:03;;;;;;;9.50;4.00;;;1.90;93.20;;;;;;5091079;28;20105;-75
2021/01/07 06:00:33;;;;;;;8.40;3.50;;;1.80;93.20;;;;;;5091738;28;20032;-76
2021/01/07 06:03:00;;;;;;;9.00;4.00;;;1.80;93.30;;;;;;5090877;28;20037;-75
2021/01/07 06:05:27;;;;;;;8.50;4.07;;;1.80;93.40;;;;;;5091542;28;20035;-75
2021/01/07 06:07:55;;;;;;;8.63;4.20;;;1.80;93.40;;;;;;5091282;28;20051;-75
2021/01/07 06:10:22;;;;;;;9.87;4.10;;;1.90;93.50;;;;;;5091701;28;20036;-75
2021/01/07 06:12:48;;;;;;;8.37;3.63;;;1.90;93.30;;;;;;5091212;28;20408;-75
2021/01/07 06:15:16;;;;;;;8.80;4.20;;;1.80;93.20;;;;;;5089245;28;20036;-76
2021/01/07 06:17:43;;;;;;;7.80;3.60;;;1.90;93.40;;;;;;5073488;28;20043;-75
2021/01/07 06:20:18;;;;;;;8.83;3.90;;;1.90;93.40;;;;;;5073005;28;20067;-75
2021/01/07 06:22:48;;;;;;;8.50;4.03;;;1.80;93.60;;;;;;5073021;28;20485;-75
2021/01/07 06:25:17;;;;;;;9.68;3.95;;;1.90;93.40;;;;;;5090824;28;20416;-75
2021/01/07 06:27:44;;;;;;;8.90;4.40;;;1.90;93.40;;;;;;5091492;28;20028;-75
2021/01/07 06:30:09;;;;;;;8.63;4.07;;;1.80;93.20;;;;;;5090064;28;20040;-74
2021/01/07 06:32:36;;;;;;;9.27;4.20;;;1.80;93.30;;;;;;5071909;28;20038;-75
2021/01/07 06:35:06;;;;;;;9.90;4.67;;;1.80;93.40;;;;;;5091517;28;20059;-75
2021/01/07 06:37:50;;;;;;;10.43;4.28;;;1.80;93.40;;;;;;5091272;28;20105;-76
2021/01/07 06:40:17;;;;;;;9.67;4.50;;;1.90;93.50;;;;;;5073379;28;20090;-74
2021/01/07 06:42:50;;;;;;;9.40;4.50;;;1.90;93.60;;;;;;5107062;28;20466;-75
2021/01/07 06:45:18;;;;;;;9.77;4.50;;;1.90;93.50;;;;;;5091220;28;20040;-75
2021/01/07 06:47:45;;;;;;;9.40;4.53;;;1.90;93.30;;;;;;5091007;28;20028;-76
2021/01/07 06:50:13;;;;;;;9.23;4.27;;;1.90;93.20;;;;;;5091526;28;20036;-76
2021/01/07 06:52:40;;;;;;;11.40;5.00;;;1.80;93.10;;;;;;5090502;28;20530;-76
2021/01/07 06:55:12;;;;;;;10.30;4.73;;;1.80;93.30;;;;;;5091206;28;20040;-75
2021/01/07 06:57:57;;;;;;;9.10;4.43;;;1.80;93.50;;;;;;5073230;28;20489;-76
2021/01/07 07:00:27;;;;;;;10.13;5.10;;;1.80;93.50;;;;;;5107042;28;20036;-75
2021/01/07 07:02:58;;;;;;;9.70;4.45;;;1.80;93.50;;;;;;5072441;28;20374;-75
2021/01/07 07:05:25;;;;;;;10.18;4.68;;;1.80;93.40;;;;;;5090920;28;20040;-75
2021/01/07 07:07:58;;;;;;;11.17;4.57;;;1.90;93.40;;;;;;5090723;28;20066;-75
2021/01/07 07:10:23;;;;;;;10.60;4.60;;;1.80;93.40;;;;;;5091365;28;20378;-75
2021/01/07 07:12:54;;;;;;;11.00;5.40;;;1.80;93.50;;;;;;5090446;28;20057;-75
2021/01/07 07:15:22;;;;;;;10.40;4.65;;;1.90;93.50;;;;;;5090545;28;20028;-75
2021/01/07 07:17:51;;;;;;;9.77;4.53;;;1.90;93.50;;;;;;5090885;28;20042;-76
2021/01/07 07:20:22;;;;;;;9.93;4.93;;;1.90;93.50;;;;;;5090982;28;20040;-76
2021/01/07 07:22:48;;;;;;;12.07;5.28;;;1.90;93.40;;;;;;5090436;28;20051;-73
2021/01/07 07:25:25;;;;;;;13.53;5.77;;;1.90;93.30;;;;;;5054781;28;20516;-75
2021/01/07 07:27:58;;;;;;;10.47;4.97;;;1.90;93.30;;;;;;5091110;28;20032;-75
2021/01/07 07:30:29;;;;;;;10.60;5.13;;;1.90;93.40;;;;;;5088772;28;20121;-75
2021/01/07 07:32:56;;;;;;;;;;;1.90;93.50;;;;;;5091237;28;20142;-77
2021/01/07 07:35:24;;;;;;;12.57;5.37;;;1.90;93.40;;;;;;5090150;28;19919;-75
2021/01/07 07:37:51;;;;;;;12.60;5.67;;;1.90;93.50;;;;;;5072705;28;20132;-75
2021/01/07 07:40:39;;;;;;;13.27;5.13;;;1.90;93.60;;;;;;5090474;28;20397;-75
2021/01/07 07:43:06;;;;;;;12.07;5.63;;;2.00;93.60;;;;;;5072472;28;20358;-77
2021/01/07 07:45:36;;;;;;;12.83;6.30;;;2.00;93.50;;;;;;5072635;28;20043;-74
2021/01/07 07:48:02;;;;;;;13.53;5.70;;;2.00;93.50;;;;;;5072755;28;20055;-76
2021/01/07 07:50:30;;;;;;;12.67;5.37;;;2.00;93.50;;;;;;5090240;28;20040;-76
2021/01/07 07:53:05;;;;;;;11.73;5.80;;;2.00;93.50;;;;;;5090362;28;20036;-76
2021/01/07 07:55:35;;;;;;;14.57;5.60;;;2.00;93.40;;;;;;5089900;28;20044;-75
2021/01/07 07:58:13;;;;;;;11.93;5.82;;;2.00;93.40;;;;;;5090591;28;20044;-75
2021/01/07 08:00:40;;;;;;;14.80;6.00;;;2.00;93.40;;;;;;5086855;28;20039;-76
2021/01/07 08:03:09;;;;;;;12.00;5.57;;;2.00;93.50;;;;;;5083540;28;20416;-75
2021/01/07 08:05:37;;;;;;;12.30;5.83;;;2.00;93.40;;;;;;5087799;28;20024;-76
2021/01/07 08:08:03;;;;;;;14.13;6.17;;;2.00;93.40;;;;;;5087399;28;20070;-76
2021/01/07 08:10:29;;;;;;;12.57;6.10;;;2.00;93.50;;;;;;5071827;28;20055;-75
2021/01/07 08:12:56;;;;;;;11.70;5.93;;;2.00;93.40;;;;;;5089349;28;20412;-74
2021/01/07 08:15:29;;;;;;;12.23;5.63;;;2.00;93.30;;;;;;5071331;28;20040;-76
2021/01/07 08:17:55;;;;;;;13.00;5.73;;;2.00;93.50;;;;;;5089447;28;20047;-74
2021/01/07 08:20:25;;;;;;;12.43;6.00;;;2.00;93.50;;;;;;5089959;28;20032;-75
2021/01/07 08:22:54;;;;;;;12.13;6.10;;;2.00;93.50;;;;;;5086095;28;20032;-75
2021/01/07 08:25:29;;;;;;;11.40;5.80;;;2.10;93.60;;;;;;5089873;28;20036;-76
2021/01/07 08:28:00;;;;;;;12.60;6.13;;;2.10;93.60;;;;;;5090013;28;20028;-75
2021/01/07 08:30:27;;;;;;;13.40;5.65;;;2.20;93.60;;;;;;5089966;28;20033;-75
2021/01/07 08:32:59;;;;;;;12.63;5.97;;;2.20;93.40;;;;;;5071678;28;20496;-75
2021/01/07 08:35:26;;;;;;;11.90;5.80;;;2.20;93.40;;;;;;5071343;28;20558;-74
2021/01/07 08:37:52;;;;;;;12.07;5.80;;;2.20;93.50;;;;;;5093420;28;20524;-74
2021/01/07 08:40:21;;;;;;;12.97;6.23;;;2.20;93.60;;;;;;5058588;28;20036;-75
2021/01/07 08:42:47;;;;;;;12.10;5.70;;;2.20;93.50;;;;;;5093176;28;20039;-76
2021/01/07 08:45:14;;;;;;;11.83;6.00;;;2.20;93.30;;;;;;5093316;28;20047;-75
2021/01/07 08:47:40;;;;;;;13.17;6.53;;;2.30;93.50;;;;;;5093235;28;20058;-75
2021/01/07 08:50:07;;;;;;;13.40;6.43;;;2.30;93.40;;;;;;5093425;28;20024;-75
2021/01/07 08:52:58;;;;;;;12.87;6.10;;;2.30;93.40;;;;;;5074521;28;20116;-75
2021/01/07 08:55:46;;;;;;;13.48;6.57;;;2.30;93.50;;;;;;5075775;28;20032;-75
2021/01/07 08:58:26;;;;;;;13.87;6.43;;;2.30;93.60;;;;;;5074975;28;20400;-74
2021/01/07 09:00:53;;;;;;;14.83;6.40;;;2.40;93.60;;;;;;5074680;28;20043;-74
2021/01/07 09:03:20;;;;;;;14.37;6.83;;;2.50;93.70;;;;;;5093010;28;20028;-74
2021/01/07 09:05:47;;;;;;;13.97;6.63;;;2.50;93.50;;;;;;5093041;28;20036;-74
2021/01/07 09:08:14;;;;;;;15.43;6.33;;;2.50;93.50;;;;;;5092767;28;20040;-74
2021/01/07 09:10:41;;;;;;;13.00;6.37;;;2.50;93.40;;;;;;5093050;28;20036;-75
2021/01/07 09:13:21;;;;;;;14.13;6.97;;;2.50;93.20;;;;;;5092364;28;20035;-73
2021/01/07 09:15:47;;;;;;;13.57;6.17;;;2.50;93.20;;;;;;5092587;28;20131;-75
2021/01/07 09:18:20;;;;;;;13.47;6.93;;;2.50;93.30;;;;;;5074451;28;20036;-74
2021/01/07 09:20:47;;;;;;;15.13;7.07;;;2.50;93.20;;;;;;5074744;28;20032;-74
2021/01/07 09:23:16;;;;;;;15.27;7.20;;;2.50;93.40;;;;;;5092326;28;20044;-74
2021/01/07 09:25:43;;;;;;;14.93;7.25;;;2.60;93.50;;;;;;5074347;28;20035;-74
2021/01/07 09:28:10;;;;;;;15.57;7.87;;;2.60;93.30;;;;;;5074589;28;20043;-75
2021/01/07 09:30:36;;;;;;;15.30;7.33;;;2.60;93.20;;;;;;5092209;28;20056;-75
2021/01/07 09:33:03;;;;;;;14.33;7.10;;;2.60;93.30;;;;;;5092170;28;20032;-74
2021/01/07 09:35:29;;;;;;;15.70;7.47;;;2.60;93.50;;;;;;5090836;28;20040;-75
2021/01/07 09:37:56;;;;;;;15.50;7.77;;;2.70;93.60;;;;;;5090513;28;20138;-75
2021/01/07 09:40:23;;;;;;;14.70;7.40;;;2.70;93.40;;;;;;5089195;28;20043;-75
2021/01/07 09:42:49;;;;;;;14.47;7.00;;;2.70;93.00;;;;;;5091467;28;20036;-75
2021/01/07 09:45:15;;;;;;;14.43;7.03;;;2.70;93.10;;;;;;5092161;28;20449;-76
2021/01/07 09:47:41;;;;;;;14.97;7.50;;;2.70;93.20;;;;;;5091774;28;20377;-75
2021/01/07 09:50:10;;;;;;;15.60;6.80;;;2.70;93.30;;;;;;5092266;28;20111;-75
2021/01/07 09:52:37;;;;;;;14.73;7.13;;;2.70;93.30;;;;;;5091967;28;20035;-76
2021/01/07 09:55:05;;;;;;;15.90;7.30;;;2.70;93.10;;;;;;5073646;28;20393;-75
2021/01/07 09:57:32;;;;;;;13.17;6.43;;;2.70;92.90;;;;;;5092210;28;20032;-76
2021/01/07 09:59:58;;;;;;;16.27;7.03;;;2.60;92.90;;;;;;5065832;28;20063;-75
2021/01/07 10:02:24;;;;;;;13.57;6.67;;;2.60;93.20;;;;;;5092147;28;20032;-75
2021/01/07 10:04:50;;;;;;;12.77;6.20;;;2.70;93.20;;;;;;5091451;28;20500;-75
2021/01/07 10:07:16;;;;;;;12.17;6.17;;;2.70;93.30;;;;;;5057455;28;20040;-75
2021/01/07 10:09:42;;;;;;;12.43;6.00;;;2.70;93.50;;;;;;5091796;28;20050;-77
2021/01/07 10:12:09;;;;;;;12.77;6.30;;;2.80;93.30;;;;;;5073133;28;20090;-76
2021/01/07 10:14:36;;;;;;;13.43;6.23;;;2.80;93.10;;;;;;5057162;28;20188;-74
2021/01/07 10:17:07;;;;;;;15.50;6.93;;;2.80;93.30;;;;;;5089287;28;20409;-76
2021/01/07 10:19:35;;;;;;;12.70;6.03;;;2.90;93.40;;;;;;5088381;28;20373;-75
2021/01/07 10:22:10;;;;;;;12.43;6.40;;;2.90;93.30;;;;;;5091752;28;20043;-75
2021/01/07 10:24:42;;;;;;;12.07;6.00;;;3.00;93.40;;;;;;5091444;28;20090;-76
2021/01/07 10:27:11;;;;;;;12.87;6.43;;;3.10;93.40;;;;;;5091961;28;20055;-75
2021/01/07 10:29:38;;;;;;;11.97;5.87;;;3.20;93.20;;;;;;5073351;28;20496;-75
2021/01/07 10:32:10;;;;;;;14.90;6.13;;;3.20;93.30;;;;;;5089442;28;20040;-74
2021/01/07 10:34:45;;;;;;;15.43;6.10;;;3.20;92.90;;;;;;5071270;28;20451;-73
2021/01/07 10:37:12;;;;;;;11.40;6.23;;;3.20;92.60;;;;;;5090025;28;20035;-74
2021/01/07 10:39:40;;;;;;;13.10;6.30;;;3.10;92.70;;;;;;5089557;28;20021;-74
2021/01/07 10:42:13;;;;;;;11.67;5.80;;;3.10;93.00;;;;;;5071545;28;20031;-74
2021/01/07 10:44:41;;;;;;;13.43;5.90;;;3.20;93.30;;;;;;5088322;28;20431;-73
2021/01/07 10:47:09;;;;;;;10.03;5.10;;;3.30;93.60;;;;;;5072411;28;20035;-73
2021/01/07 10:49:37;;;;;;;10.37;5.50;;;3.40;93.00;;;;;;5090318;28;20111;-72
2021/01/07 10:52:10;;;;;;;11.13;5.40;;;3.40;93.00;;;;;;5068647;28;20501;-73
2021/01/07 10:54:51;;;;;;;9.63;4.63;;;3.40;92.60;;;;;;5089972;28;20043;-73
2021/01/07 10:57:29;;;;;;;10.95;5.05;;;3.40;92.50;;;;;;5071231;28;20052;-73
2021/01/07 11:00:08;;;;;;;9.93;4.93;;;3.30;92.70;;;;;;5089482;28;20050;-73
2021/01/07 11:02:38;;;;;;;11.00;5.27;;;3.30;92.80;;;;;;5090530;28;20396;-74
2021/01/07 11:05:13;;;;;;;11.57;5.23;;;3.40;93.00;;;;;;5087160;28;20119;-74
2021/01/07 11:08:04;;;;;;;13.47;5.37;;;3.40;92.90;;;;;;5091467;28;20039;-74
2021/01/07 11:10:31;;;;;;;;;;;3.40;92.60;;;;;;5089380;28;20059;-73
2021/01/07 11:13:02;;;;;;;10.73;5.43;;;3.40;92.50;;;;;;5089495;28;20450;-73
2021/01/07 11:15:29;;;;;;;10.30;5.23;;;3.30;92.60;;;;;;5087185;28;20421;-72
2021/01/07 11:18:02;;;;;;;11.50;5.63;;;3.30;92.80;;;;;;5072025;28;20420;-75
2021/01/07 11:20:30;;;;;;;10.60;5.60;;;3.30;92.80;;;;;;5089625;28;20028;-74
2021/01/07 11:22:57;;;;;;;11.10;5.67;;;3.30;92.30;;;;;;5054926;28;20043;-73
2021/01/07 11:25:24;;;;;;;10.33;5.07;;;3.20;92.40;;;;;;5086668;28;20047;-72
2021/01/07 11:27:52;;;;;;;12.40;5.47;;;3.20;92.50;;;;;;5089740;28;20098;-74
2021/01/07 11:30:18;;;;;;;10.87;4.90;;;3.20;92.30;;;;;;5072374;28;20043;-72
2021/01/07 11:32:46;;;;;;;10.47;4.80;;;3.10;92.10;;;;;;5071428;28;20085;-74
2021/01/07 11:35:13;;;;;;;10.17;5.00;;;3.00;92.20;;;;;;5089895;28;20034;-73
2021/01/07 11:37:42;;;;;;;10.30;5.00;;;2.90;92.50;;;;;;5089745;28;20462;-74
2021/01/07 11:40:32;;;;;;;11.27;5.20;;;2.90;92.40;;;;;;5088143;28;20068;-74
2021/01/07 11:43:20;;;;;;;10.70;5.63;;;2.80;92.40;;;;;;5088558;28;20063;-74
2021/01/07 11:45:54;;;;;;;9.83;5.30;;;2.70;92.50;;;;;;5085713;28;20034;-73
2021/01/07 11:48:23;;;;;;;10.07;5.40;;;2.70;92.60;;;;;;5087303;28;20032;-73
2021/01/07 11:50:57;;;;;;;10.30;5.20;;;2.70;92.80;;;;;;5090334;28;20466;-74
2021/01/07 11:53:26;;;;;;;10.83;5.33;;;2.70;92.80;;;;;;5089740;28;20044;-74
2021/01/07 11:55:53;;;;;;;10.33;5.53;;;2.80;92.80;;;;;;5090104;28;20032;-73
2021/01/07 11:58:19;;;;;;;10.50;5.20;;;2.80;92.80;;;;;;5088975;28;20055;-74
2021/01/07 12:00:46;;;;;;;11.17;5.57;;;2.90;92.90;;;;;;5070578;28;20658;-74
2021/01/07 12:03:15;;;;;;;11.63;5.37;;;2.90;92.60;;;;;;5088753;28;20105;-74
2021/01/07 12:05:42;;;;;;;9.70;4.60;;;2.90;92.80;;;;;;5069066;28;20028;-73
2021/01/07 12:08:30;;;;;;;9.40;4.20;;;2.90;92.70;;;;;;5087653;28;20496;-74
2021/01/07 12:10:59;;;;;;;8.77;4.13;;;3.00;92.80;;;;;;5057566;28;20055;-73
2021/01/07 12:13:45;;;;;;;8.83;4.20;;;3.00;92.80;;;;;;5072581;28;20107;-73
2021/01/07 12:16:19;;;;;;;9.20;4.20;;;3.10;92.90;;;;;;5091509;28;20515;-75
2021/01/07 12:18:50;;;;;;;8.70;4.07;;;3.20;92.90;;;;;;5091162;28;20036;-74
2021/01/07 12:21:18;;;;;;;9.75;4.47;;;3.20;92.60;;;;;;5105761;28;20028;-73
2021/01/07 12:23:46;;;;;;;8.73;4.20;;;3.20;92.50;;;;;;5092880;28;20134;-72
2021/01/07 12:26:14;;;;;;;8.70;4.30;;;3.20;92.60;;;;;;5093209;28;20515;-73
2021/01/07 12:29:56;;;;;;;9.97;4.57;;;3.30;92.40;;;;;;5120545;27;20703;-73
2021/01/07 12:32:33;;;;;;;9.57;4.57;;;3.30;92.70;;;;;;5127779;27;20031;-72
2021/01/07 12:35:22;;;;;;;8.90;4.50;;;3.30;92.50;;;;;;5127526;27;20042;-72
2021/01/07 12:38:08;;;;;;;9.30;4.50;;;3.40;92.50;;;;;;5125489;27;20131;-72
2021/01/07 12:40:38;;;;;;;9.93;4.53;;;3.40;92.60;;;;;;5127287;27;20039;-72
2021/01/07 12:43:07;;;;;;;8.45;3.95;;;3.40;92.40;;;;;;5100735;28;20096;-73
2021/01/07 12:45:35;;;;;;;9.07;4.20;;;3.40;92.20;;;;;;5109074;27;20384;-69
2021/01/07 12:48:03;;;;;;;9.10;4.40;;;3.30;92.20;;;;;;5093310;27;20043;-73
2021/01/07 12:50:29;;;;;;;8.80;4.63;;;3.30;92.50;;;;;;5128576;27;20034;-74
2021/01/07 12:52:56;;;;;;;9.77;4.20;;;3.30;92.60;;;;;;5127901;27;20565;-73
2021/01/07 12:55:22;;;;;;;8.40;4.10;;;3.30;92.30;;;;;;5128311;27;20087;-73
2021/01/07 12:58:02;;;;;;;9.37;4.50;;;3.30;92.40;;;;;;5109459;27;20120;-70
2021/01/07 13:00:49;;;;;;;10.27;5.32;;;3.30;92.60;;;;;;5117607;27;20093;-71